x

Nantucket Sound (44020) Wave Buoy

1:50pm - Thu 2nd Jul 2015 All times are EDT. -4 hours from GMT.

  • Sig Wave height 1.3ft
  • Swell Direction
  • Peak Period 3s
  • Average Period 4s
  • Wind
    7mph, 9mph gusts
  • Sea Temp 69°f
  • Air Temp 71°f
  • Sea Pressure 1011.9mb
  • Nantucket Sound
  • Nantucket Sound

More Historic Weather Station data

Upgrade to MSW Pro to gain access to the past 30 days of data for over 8000 Wavebouys and Weather Stations around the globe.

Join Pro

Comparision Forecast

View Surf forecast
   
Thu 07/02 1:50pm 1.3ft 3s 4s 7 9 mph 1011.9mb 69f 71f
12:50pm 1.3ft 8s 4s 7 9 mph 1012.2mb 69f 69f
11:50am 1.3ft 8s 4s 9 11 mph 1012.7mb 69f 69f
10:50am 1ft 4s 4s 11
mph
1012.8mb 68f 68f
9:50am 1ft 8s 4s 9 11 mph 1012.6mb 68f 68f
8:50am 1ft 4s 4s 11
mph
1012.3mb 67f 68f
7:50am 1ft 4s 3s 11 13 mph 1012.2mb 66f 67f
6:50am 1ft 8s 3s 9 11 mph 1011.7mb 65f 67f
5:50am 1ft 3s 4s 4 7 mph 1011.1mb 63f 68f
4:50am 1ft 3s 4s 7 9 mph 1010.8mb 63f 68f
3:50am 1.3ft 4s 4s 9
mph
1010.5mb 64f 68f
2:50am 1.3ft 3s 4s 7 9 mph 1010.2mb 66f 69f
1:50am 1.6ft 4s 4s 13 16 mph 1010.1mb 67f 68f
12:50am 2ft 4s 4s 18 22 mph 1009.6mb 68f 68f
Wed 07/01 11:50pm 2ft 3s 4s 20 22 mph 1009.4mb 68f 69f
10:50pm 2ft 3s 3s 20 25 mph 1009.1mb 68f 69f
9:50pm 2ft 3s 3s 20 25 mph 1008.9mb 68f 69f
8:50pm 1.6ft 3s 3s 20 25 mph 1008.7mb 68f 69f
7:50pm 2ft 3s 3s 20 22 mph 1008.3mb 67f 69f
6:50pm 2ft 3s 3s 20 25 mph 1007.9mb 66f 69f
5:50pm 2ft 3s 3s 20 25 mph 1007.8mb 65f 69f
4:50pm 2ft 4s 3s 18 22 mph 1008mb 65f 69f
3:50pm 1.6ft 3s 3s 20 22 mph 1007.8mb 65f 68f
2:50pm 1.6ft 3s 3s 18 22 mph 1007.9mb 67f 69f
1:50pm 1.6ft 3s 3s 18 22 mph 1008.2mb 68f 69f
12:50pm 2ft 3s 3s 16 18 mph 1008.6mb 68f 69f
11:50am 2ft 3s 4s 16 18 mph 1008.9mb 68f 69f
10:50am 1.6ft 3s 4s 7 16 mph 1009.3mb 68f 70f
9:50am 1.6ft 3s 3s 13 16 mph 1009.5mb 67f 67f
8:50am 1.3ft 4s 3s 16 18 mph 1010.8mb 67f 66f
7:50am 1.3ft 3s 3s 16 18 mph 1010.9mb 66f 65f
6:50am 1.3ft 3s 3s 16 18 mph 1011.6mb 65f 64f
5:50am 1ft 3s 3s 13 16 mph 1011.3mb 64f 64f
4:50am 0.7ft  -  3s 11
mph
1012.3mb 63f 64f
3:50am 0.7ft  -  4s 9 11 mph 1012.5mb 63f 63f
2:50am 0.7ft  -  4s 9 11 mph 1012.8mb 64f 63f
1:50am 1ft 9s 3s 9 11 mph 1013.6mb 66f 65f
12:50am 1ft 8s 3s 11 13 mph 1014.1mb 67f 66f
Tue 06/30 11:50pm 1.3ft 8s 4s 11
mph
1014.8mb 68f 67f
10:50pm 1.3ft 7s 4s 13 16 mph 1015.1mb 68f 67f
9:50pm 1ft 5s 4s 11 13 mph 1015.4mb 68f 68f
8:50pm 0.7ft  -  4s 9 11 mph 1015mb 68f 69f
7:50pm 1ft 6s 4s 4 7 mph 1014.7mb 68f 69f
6:50pm 0.7ft  -  4s 4
mph
1015mb 68f 69f
5:50pm 1ft 4s 4s 9
mph
1015.3mb 67f 69f
4:50pm 1ft 8s 4s 7 9 mph 1015.3mb 65f 69f
3:50pm 1ft 9s 4s 9
mph
1015.4mb 65f 68f
2:50pm 1ft 9s 4s 9
mph
1016.1mb 65f 68f
1:50pm 1ft 9s 4s 9 11 mph 1015.9mb 67f 68f
12:50pm 1.3ft 6s 4s 9 11 mph 1016mb 68f 68f
11:50am 1.3ft 8s 4s 9 11 mph 1016.2mb 68f 68f
10:50am 1.3ft 8s 4s 11 13 mph 1016.1mb 68f 67f
9:50am 1ft 9s 4s 11 13 mph 1016mb 67f 67f
8:50am 1ft 8s 4s 9 11 mph 1016.5mb 67f 67f
7:50am 1ft 4s 4s 9
mph
1016.5mb 66f 66f
6:50am 1ft 5s 3s 7
mph
1015.8mb 66f 66f
5:50am 1ft 5s 3s 7 9 mph 1015.3mb 65f 66f
4:50am 1ft 9s 3s 9 11 mph 1015.3mb 64f 65f
3:50am 1.3ft 3s 3s 11
mph
1015.3mb 64f 66f
2:50am 1.3ft 4s 4s 13 16 mph 1014.7mb 64f 66f
1:50am 1.3ft 4s 4s 13 16 mph 1014.5mb 65f 66f
12:50am 1.6ft 4s 4s 16 18 mph 1014.3mb 66f 66f
Mon 06/29 11:50pm 1.6ft 3s 4s 16 20 mph 1014.1mb 67f 66f
10:50pm 2ft 8s 4s 18 20 mph 1013.8mb 67f 66f
9:50pm 1.6ft 8s 4s 18 22 mph 1013.7mb 67f 66f
8:50pm 1.6ft 3s 3s 18 20 mph 1013.1mb 67f 66f
7:50pm 1.6ft 6s 3s 18 22 mph 1013mb 67f 66f
6:50pm 1.6ft 3s 3s 20 22 mph 1012.5mb 67f 66f
5:50pm 2ft 3s 3s 20 22 mph 1012.1mb 66f 66f
4:50pm 2.5ft 4s 3s 20 25 mph 1011.6mb 66f 66f
3:50pm 2ft 3s 3s 20 25 mph 1011.6mb 65f 65f
2:50pm 1.6ft 3s 3s 18 20 mph 1011.6mb 65f 66f
1:50pm 2ft 3s 4s 20 22 mph 1011.4mb 65f 65f
12:50pm 2ft 6s 4s 20 25 mph 1011.1mb 66f 65f
11:50am 2ft 9s 4s 18 20 mph 1010.8mb 67f 65f
10:50am 1.6ft 8s 4s 11 13 mph 1010.4mb 67f 64f
9:50am 1.6ft 8s 4s 9 11 mph 1010.4mb 67f 61f
8:50am 1.3ft 9s 4s 9 11 mph 1010.3mb 66f 59f
7:50am 1.3ft 5s 4s 9
mph
1010.1mb 66f 58f
6:50am 1.3ft 5s 4s 9 11 mph 1009.9mb 66f 58f
5:50am 1.3ft 5s 4s 7 9 mph 1009.8mb 65f 58f
4:50am 1.3ft 5s 4s 2 4 mph 1009.3mb 63f 58f
3:50am 1.3ft 5s 4s 4
mph
1008.8mb 62f 57f
2:50am 1.6ft 5s 4s 4 7 mph 1008.7mb 62f 57f
1:50am 2ft 3s 4s 9 11 mph 1008.3mb 63f 58f
12:50am 2ft 3s 4s 11 13 mph 1007.9mb 65f 59f
Sun 06/28 11:50pm 2.5ft 4s 4s 16 18 mph 1007.3mb 66f 60f
10:50pm 2.5ft 4s 4s 16 18 mph 1007.2mb 67f 61f
9:50pm 2.5ft 8s 4s 18 20 mph 1006.9mb 67f 63f
8:50pm 2ft 8s 4s 18 20 mph 1005.9mb 67f 64f
7:50pm 1.6ft 8s 5s 16 18 mph 1004.7mb 67f 65f